sensor_id;sensor_type;location;lat;lon;timestamp;P1;durP1;ratioP1;P2;durP2;ratioP2
73895;SDS011;73986;50.770;6.080;2024-02-04T00:08:13;3.03;;;1.50;;
73895;SDS011;73986;50.770;6.080;2024-02-04T00:18:17;3.60;;;1.55;;
73895;SDS011;73986;50.770;6.080;2024-02-04T00:28:20;3.58;;;1.67;;
73895;SDS011;73986;50.770;6.080;2024-02-04T00:38:21;2.13;;;0.80;;
73895;SDS011;73986;50.770;6.080;2024-02-04T00:48:24;1.65;;;0.85;;
73895;SDS011;73986;50.770;6.080;2024-02-04T00:58:26;2.38;;;0.73;;
73895;SDS011;73986;50.770;6.080;2024-02-04T01:08:29;1.48;;;0.70;;
73895;SDS011;73986;50.770;6.080;2024-02-04T01:18:31;3.42;;;1.30;;
73895;SDS011;73986;50.770;6.080;2024-02-04T01:28:34;2.55;;;1.05;;
73895;SDS011;73986;50.770;6.080;2024-02-04T01:38:36;2.25;;;1.17;;
73895;SDS011;73986;50.770;6.080;2024-02-04T01:48:39;2.78;;;1.33;;
73895;SDS011;73986;50.770;6.080;2024-02-04T01:58:41;3.75;;;1.58;;
73895;SDS011;73986;50.770;6.080;2024-02-04T02:08:45;3.03;;;1.27;;
73895;SDS011;73986;50.770;6.080;2024-02-04T02:18:49;3.42;;;1.63;;
73895;SDS011;73986;50.770;6.080;2024-02-04T02:28:55;2.85;;;1.30;;
73895;SDS011;73986;50.770;6.080;2024-02-04T02:38:58;2.97;;;1.25;;
73895;SDS011;73986;50.770;6.080;2024-02-04T02:49:12;2.60;;;1.20;;
73895;SDS011;73986;50.770;6.080;2024-02-04T02:59:14;3.42;;;1.50;;
73895;SDS011;73986;50.770;6.080;2024-02-04T03:09:17;4.05;;;1.70;;
73895;SDS011;73986;50.770;6.080;2024-02-04T03:19:19;3.55;;;1.42;;
73895;SDS011;73986;50.770;6.080;2024-02-04T03:29:22;4.13;;;1.58;;
73895;SDS011;73986;50.770;6.080;2024-02-04T03:39:24;4.00;;;1.60;;
73895;SDS011;73986;50.770;6.080;2024-02-04T03:49:27;4.35;;;1.65;;
73895;SDS011;73986;50.770;6.080;2024-02-04T03:59:29;2.63;;;1.23;;
73895;SDS011;73986;50.770;6.080;2024-02-04T04:09:32;4.35;;;1.95;;
73895;SDS011;73986;50.770;6.080;2024-02-04T04:19:33;4.32;;;1.70;;
73895;SDS011;73986;50.770;6.080;2024-02-04T04:29:38;4.18;;;1.65;;
73895;SDS011;73986;50.770;6.080;2024-02-04T04:39:40;4.13;;;1.60;;
73895;SDS011;73986;50.770;6.080;2024-02-04T04:49:43;5.55;;;1.88;;
73895;SDS011;73986;50.770;6.080;2024-02-04T04:59:44;3.67;;;1.73;;
73895;SDS011;73986;50.770;6.080;2024-02-04T05:09:47;4.90;;;2.10;;
73895;SDS011;73986;50.770;6.080;2024-02-04T05:19:49;3.45;;;1.45;;
73895;SDS011;73986;50.770;6.080;2024-02-04T05:29:52;3.72;;;1.13;;
73895;SDS011;73986;50.770;6.080;2024-02-04T05:39:54;4.57;;;1.30;;
73895;SDS011;73986;50.770;6.080;2024-02-04T05:49:57;4.00;;;1.48;;
73895;SDS011;73986;50.770;6.080;2024-02-04T05:59:58;4.18;;;1.60;;
73895;SDS011;73986;50.770;6.080;2024-02-04T06:10:01;2.47;;;1.38;;
73895;SDS011;73986;50.770;6.080;2024-02-04T06:20:04;2.95;;;1.33;;
73895;SDS011;73986;50.770;6.080;2024-02-04T06:30:08;3.45;;;1.65;;
73895;SDS011;73986;50.770;6.080;2024-02-04T06:40:11;2.35;;;1.10;;
73895;SDS011;73986;50.770;6.080;2024-02-04T06:50:14;1.55;;;0.85;;
73895;SDS011;73986;50.770;6.080;2024-02-04T07:00:17;3.03;;;1.48;;
73895;SDS011;73986;50.770;6.080;2024-02-04T07:10:20;2.80;;;1.27;;
73895;SDS011;73986;50.770;6.080;2024-02-04T07:20:22;3.78;;;1.40;;
73895;SDS011;73986;50.770;6.080;2024-02-04T07:30:25;4.18;;;1.75;;
73895;SDS011;73986;50.770;6.080;2024-02-04T07:40:26;4.78;;;2.08;;
73895;SDS011;73986;50.770;6.080;2024-02-04T07:50:31;4.68;;;1.92;;
73895;SDS011;73986;50.770;6.080;2024-02-04T08:00:33;6.40;;;2.78;;
73895;SDS011;73986;50.770;6.080;2024-02-04T08:10:36;3.80;;;1.52;;
73895;SDS011;73986;50.770;6.080;2024-02-04T08:20:37;3.83;;;1.40;;
73895;SDS011;73986;50.770;6.080;2024-02-04T08:30:40;2.88;;;1.30;;
73895;SDS011;73986;50.770;6.080;2024-02-04T08:40:42;4.57;;;1.67;;
73895;SDS011;73986;50.770;6.080;2024-02-04T08:50:45;3.53;;;1.35;;
73895;SDS011;73986;50.770;6.080;2024-02-04T09:00:47;3.22;;;1.30;;
73895;SDS011;73986;50.770;6.080;2024-02-04T09:10:50;2.33;;;1.10;;
73895;SDS011;73986;50.770;6.080;2024-02-04T09:20:52;3.38;;;1.40;;
73895;SDS011;73986;50.770;6.080;2024-02-04T09:30:55;3.83;;;1.80;;
73895;SDS011;73986;50.770;6.080;2024-02-04T09:40:56;3.88;;;1.85;;
73895;SDS011;73986;50.770;6.080;2024-02-04T09:51:01;2.90;;;1.40;;
73895;SDS011;73986;50.770;6.080;2024-02-04T10:01:04;2.95;;;1.08;;
73895;SDS011;73986;50.770;6.080;2024-02-04T10:11:10;4.35;;;1.73;;
73895;SDS011;73986;50.770;6.080;2024-02-04T10:21:15;2.05;;;0.80;;
73895;SDS011;73986;50.770;6.080;2024-02-04T10:31:19;3.30;;;1.43;;
73895;SDS011;73986;50.770;6.080;2024-02-04T10:41:21;4.00;;;1.50;;
73895;SDS011;73986;50.770;6.080;2024-02-04T10:51:26;3.65;;;1.60;;
73895;SDS011;73986;50.770;6.080;2024-02-04T11:01:28;4.05;;;1.60;;
73895;SDS011;73986;50.770;6.080;2024-02-04T11:11:31;3.78;;;1.65;;
73895;SDS011;73986;50.770;6.080;2024-02-04T11:21:39;3.20;;;1.52;;
73895;SDS011;73986;50.770;6.080;2024-02-04T11:31:53;4.40;;;2.08;;
73895;SDS011;73986;50.770;6.080;2024-02-04T11:41:55;4.15;;;1.80;;
73895;SDS011;73986;50.770;6.080;2024-02-04T11:52:01;4.88;;;2.10;;
73895;SDS011;73986;50.770;6.080;2024-02-04T12:02:05;3.50;;;1.67;;
73895;SDS011;73986;50.770;6.080;2024-02-04T12:12:09;4.45;;;1.95;;
73895;SDS011;73986;50.770;6.080;2024-02-04T12:22:10;5.90;;;2.67;;
73895;SDS011;73986;50.770;6.080;2024-02-04T12:32:13;5.85;;;2.55;;
73895;SDS011;73986;50.770;6.080;2024-02-04T12:42:15;4.95;;;2.40;;
73895;SDS011;73986;50.770;6.080;2024-02-04T12:52:21;4.43;;;2.00;;
73895;SDS011;73986;50.770;6.080;2024-02-04T13:02:31;5.38;;;2.33;;
73895;SDS011;73986;50.770;6.080;2024-02-04T13:12:44;4.75;;;2.47;;
73895;SDS011;73986;50.770;6.080;2024-02-04T13:23:06;4.88;;;2.10;;
73895;SDS011;73986;50.770;6.080;2024-02-04T13:33:09;4.25;;;2.00;;
73895;SDS011;73986;50.770;6.080;2024-02-04T13:43:11;4.32;;;1.80;;
73895;SDS011;73986;50.770;6.080;2024-02-04T13:53:14;4.35;;;1.40;;
73895;SDS011;73986;50.770;6.080;2024-02-04T14:03:16;3.20;;;1.60;;
73895;SDS011;73986;50.770;6.080;2024-02-04T14:13:19;3.83;;;1.52;;
73895;SDS011;73986;50.770;6.080;2024-02-04T14:23:21;3.85;;;1.63;;
73895;SDS011;73986;50.770;6.080;2024-02-04T14:33:24;3.50;;;1.70;;
73895;SDS011;73986;50.770;6.080;2024-02-04T14:43:25;3.92;;;1.55;;
73895;SDS011;73986;50.770;6.080;2024-02-04T14:53:28;2.17;;;1.10;;
73895;SDS011;73986;50.770;6.080;2024-02-04T15:03:32;2.45;;;1.00;;
73895;SDS011;73986;50.770;6.080;2024-02-04T15:13:36;1.67;;;0.93;;
73895;SDS011;73986;50.770;6.080;2024-02-04T15:23:38;3.17;;;1.00;;
73895;SDS011;73986;50.770;6.080;2024-02-04T15:33:42;3.72;;;1.05;;
73895;SDS011;73986;50.770;6.080;2024-02-04T15:43:46;1.85;;;0.88;;
73895;SDS011;73986;50.770;6.080;2024-02-04T15:53:49;1.73;;;0.82;;
73895;SDS011;73986;50.770;6.080;2024-02-04T16:03:52;2.05;;;0.95;;
73895;SDS011;73986;50.770;6.080;2024-02-04T16:13:56;2.60;;;1.00;;
73895;SDS011;73986;50.770;6.080;2024-02-04T16:24:03;3.05;;;1.55;;
73895;SDS011;73986;50.770;6.080;2024-02-04T16:34:07;8.93;;;1.63;;
73895;SDS011;73986;50.770;6.080;2024-02-04T16:44:09;4.47;;;1.55;;
73895;SDS011;73986;50.770;6.080;2024-02-04T16:54:15;3.20;;;1.70;;
73895;SDS011;73986;50.770;6.080;2024-02-04T17:14:29;5.07;;;1.75;;
73895;SDS011;73986;50.770;6.080;2024-02-04T17:24:34;4.90;;;2.88;;
73895;SDS011;73986;50.770;6.080;2024-02-04T17:34:42;5.00;;;2.77;;
73895;SDS011;73986;50.770;6.080;2024-02-04T17:44:44;7.30;;;2.92;;
73895;SDS011;73986;50.770;6.080;2024-02-04T17:54:48;7.43;;;3.45;;
73895;SDS011;73986;50.770;6.080;2024-02-04T18:05:07;8.27;;;3.05;;
73895;SDS011;73986;50.770;6.080;2024-02-04T18:15:11;5.35;;;2.03;;
73895;SDS011;73986;50.770;6.080;2024-02-04T18:25:14;4.68;;;2.25;;
73895;SDS011;73986;50.770;6.080;2024-02-04T18:35:16;5.03;;;2.08;;
73895;SDS011;73986;50.770;6.080;2024-02-04T18:45:20;7.60;;;4.38;;
73895;SDS011;73986;50.770;6.080;2024-02-04T18:55:23;6.55;;;2.85;;
73895;SDS011;73986;50.770;6.080;2024-02-04T19:05:25;4.78;;;2.55;;
73895;SDS011;73986;50.770;6.080;2024-02-04T19:15:28;5.45;;;2.53;;
73895;SDS011;73986;50.770;6.080;2024-02-04T19:25:30;4.35;;;1.85;;
73895;SDS011;73986;50.770;6.080;2024-02-04T19:35:33;8.63;;;2.45;;
73895;SDS011;73986;50.770;6.080;2024-02-04T19:45:36;5.82;;;2.13;;
73895;SDS011;73986;50.770;6.080;2024-02-04T19:55:40;3.58;;;1.65;;
73895;SDS011;73986;50.770;6.080;2024-02-04T20:05:41;3.25;;;1.63;;
73895;SDS011;73986;50.770;6.080;2024-02-04T20:15:45;5.32;;;1.67;;
73895;SDS011;73986;50.770;6.080;2024-02-04T20:25:47;3.33;;;1.52;;
73895;SDS011;73986;50.770;6.080;2024-02-04T20:35:51;6.82;;;2.15;;
73895;SDS011;73986;50.770;6.080;2024-02-04T20:45:53;4.03;;;1.75;;
73895;SDS011;73986;50.770;6.080;2024-02-04T20:55:56;7.90;;;1.73;;
73895;SDS011;73986;50.770;6.080;2024-02-04T21:05:58;3.83;;;1.70;;
73895;SDS011;73986;50.770;6.080;2024-02-04T21:16:01;4.25;;;1.83;;
73895;SDS011;73986;50.770;6.080;2024-02-04T21:26:03;5.53;;;2.40;;
73895;SDS011;73986;50.770;6.080;2024-02-04T21:36:09;5.75;;;2.78;;
73895;SDS011;73986;50.770;6.080;2024-02-04T21:46:11;4.88;;;2.35;;
73895;SDS011;73986;50.770;6.080;2024-02-04T21:56:14;4.30;;;1.77;;
73895;SDS011;73986;50.770;6.080;2024-02-04T22:06:16;4.60;;;2.10;;
73895;SDS011;73986;50.770;6.080;2024-02-04T22:16:19;4.40;;;2.42;;
73895;SDS011;73986;50.770;6.080;2024-02-04T22:26:21;5.25;;;2.03;;
73895;SDS011;73986;50.770;6.080;2024-02-04T22:36:24;5.60;;;2.55;;
73895;SDS011;73986;50.770;6.080;2024-02-04T22:46:27;5.30;;;2.40;;
73895;SDS011;73986;50.770;6.080;2024-02-04T22:56:30;6.57;;;2.78;;
73895;SDS011;73986;50.770;6.080;2024-02-04T23:06:32;6.93;;;1.95;;
73895;SDS011;73986;50.770;6.080;2024-02-04T23:16:35;3.30;;;1.70;;
73895;SDS011;73986;50.770;6.080;2024-02-04T23:26:37;5.72;;;2.67;;
73895;SDS011;73986;50.770;6.080;2024-02-04T23:36:40;13.30;;;2.20;;
73895;SDS011;73986;50.770;6.080;2024-02-04T23:46:42;4.18;;;1.95;;
73895;SDS011;73986;50.770;6.080;2024-02-04T23:56:45;12.10;;;2.72;;
